KVJI/VJI METAR and TAF weather

Enter ICAO airport designator
Station Type Date Time Source
KVJI METAR 2019/12/08 11:15 UTC NOAA

KVJI 081115Z AUTO 09009KT 10SM BKN041 03/M01 A3032 RMK AO2 T00251011


Station Type Date Time Source
KVJI Decoded METAR 2019/12/08 11:15 UTC NOAA

Abingdon, VA, United States (KVJI) 36-41N 082-02W
Dec 08, 2019 - 06:15 AM EST / 2019.12.08 1115 UTC
Wind: from the E (090 degrees) at 10 MPH (9 KT):0
Visibility: 10 mile(s):0
Sky conditions: mostly cloudy
Temperature: 36.5 F (2.5 C)
Dew Point: 30.0 F (-1.1 C)
Relative Humidity: 77%
Pressure (altimeter): 30.32 in. Hg (1026 hPa)
ob: KVJI 081115Z AUTO 09009KT 10SM BKN041 03/M01 A3032 RMK AO2 T00251011
cycle: 11

Station Type Date Time Source
KVJI TAF UTC NOAA

Error!

Example: see airport list